Time;durP1;ratioP1;P1;durP2;ratioP2;P2;SDS_P1;SDS_P2;PMS_P1;PMS_P2;Temp;Humidity;BMP_temperature;BMP_pressure;BME280_temperature;BME280_humidity;BME280_pressure;Samples;Min_cycle;Max_cycle;Signal;HPM_P1;HPM_P2
2021/09/29 00:01:57;;;;;;;7.23;6.40;;;;;;;;;;5055088;28;20232;-63
2021/09/29 00:04:22;;;;;;;7.77;7.03;;;;;;;;;;5054693;28;20214;-62
2021/09/29 00:06:48;;;;;;;7.67;6.87;;;;;;;;;;5055140;28;20330;-62
2021/09/29 00:09:13;;;;;;;7.30;6.50;;;;;;;;;;5054946;28;20219;-62
2021/09/29 00:11:38;;;;;;;7.53;6.43;;;;;;;;;;5054334;28;20339;-62
2021/09/29 00:14:03;;;;;;;8.40;7.60;;;;;;;;;;5055224;28;20225;-63
2021/09/29 00:16:29;;;;;;;9.17;7.30;;;;;;;;;;5054632;28;20313;-63
2021/09/29 00:18:54;;;;;;;8.57;6.70;;;;;;;;;;5055143;28;20212;-62
2021/09/29 00:21:19;;;;;;;7.23;6.50;;;;;;;;;;5054107;28;20253;-62
2021/09/29 00:23:46;;;;;;;9.10;6.93;;;;;;;;;;5054949;28;20652;-62
2021/09/29 00:26:12;;;;;;;8.57;6.80;;;;;;;;;;5054741;28;20228;-62
2021/09/29 00:28:37;;;;;;;7.40;6.70;;;;;;;;;;5054311;28;20514;-62
2021/09/29 00:31:05;;;;;;;8.67;7.00;;;;;;;;;;5054618;28;20546;-63
2021/09/29 00:33:33;;;;;;;12.90;6.50;;;;;;;;;;5053960;28;20228;-63
2021/09/29 00:35:59;;;;;;;6.30;5.70;;;;;;;;;;5054229;28;20459;-63
2021/09/29 00:38:24;;;;;;;9.03;6.90;;;;;;;;;;5054132;28;20463;-63
2021/09/29 00:40:49;;;;;;;7.93;7.13;;;;;;;;;;5054263;28;20339;-62
2021/09/29 00:43:15;;;;;;;8.03;6.87;;;;;;;;;;5054312;28;20217;-62
2021/09/29 00:45:41;;;;;;;8.37;7.30;;;;;;;;;;5053966;28;20300;-62
2021/09/29 00:48:06;;;;;;;6.40;5.73;;;;;;;;;;5054296;28;20228;-62
2021/09/29 00:50:31;;;;;;;10.07;6.57;;;;;;;;;;5054120;28;20652;-62
2021/09/29 00:52:57;;;;;;;7.67;7.00;;;;;;;;;;5054456;28;20224;-62
2021/09/29 00:55:22;;;;;;;9.23;6.17;;;;;;;;;;5053736;28;20221;-63
2021/09/29 00:57:47;;;;;;;7.17;6.47;;;;;;;;;;5054312;28;20278;-62
2021/09/29 01:00:13;;;;;;;7.37;6.67;;;;;;;;;;5054105;28;20217;-62
2021/09/29 01:02:38;;;;;;;7.60;6.90;;;;;;;;;;5053758;28;20304;-62
2021/09/29 01:05:05;;;;;;;8.33;7.07;;;;;;;;;;5053186;28;20209;-63
2021/09/29 01:07:39;;;;;;;9.63;6.53;;;;;;;;;;5053810;28;20294;-63
2021/09/29 01:10:14;;;;;;;7.77;7.07;;;;;;;;;;5053978;28;20488;-63
2021/09/29 01:12:46;;;;;;;7.80;7.00;;;;;;;;;;5053432;28;20540;-62
2021/09/29 01:15:14;;;;;;;7.40;6.53;;;;;;;;;;5053234;28;20458;-61
2021/09/29 01:17:43;;;;;;;7.83;6.47;;;;;;;;;;5052591;28;20471;-64
2021/09/29 01:20:15;;;;;;;8.63;7.73;;;;;;;;;;5052903;28;20521;-63
2021/09/29 01:22:50;;;;;;;7.93;7.20;;;;;;;;;;5052206;28;20464;-61
2021/09/29 01:25:44;;;;;;;7.07;6.20;;;;;;;;;;5053069;28;20460;-62
2021/09/29 01:28:09;;;;;;;10.43;7.00;;;;;;;;;;5053376;28;20775;-62
2021/09/29 01:30:35;;;;;;;8.23;7.07;;;;;;;;;;5052111;28;20470;-61
2021/09/29 01:33:01;;;;;;;9.97;7.07;;;;;;;;;;5053313;28;20220;-61
2021/09/29 01:35:26;;;;;;;7.10;6.10;;;;;;;;;;5052244;28;20448;-61
2021/09/29 01:37:52;;;;;;;8.80;7.00;;;;;;;;;;5053749;28;20209;-60
2021/09/29 01:40:17;;;;;;;6.77;6.10;;;;;;;;;;5053237;28;20641;-61
2021/09/29 01:42:42;;;;;;;6.43;5.83;;;;;;;;;;5053758;28;20217;-61
2021/09/29 01:45:08;;;;;;;7.30;5.97;;;;;;;;;;5053552;28;20213;-60
2021/09/29 01:47:33;;;;;;;7.20;6.53;;;;;;;;;;5057665;28;20637;-60
2021/09/29 01:50:00;;;;;;;6.67;5.90;;;;;;;;;;5057713;28;20258;-61
2021/09/29 01:52:29;;;;;;;8.73;6.17;;;;;;;;;;5056496;28;20247;-61
2021/09/29 01:54:55;;;;;;;8.27;6.20;;;;;;;;;;5057675;28;20474;-61
2021/09/29 01:57:20;;;;;;;7.40;6.80;;;;;;;;;;5056305;28;20800;-62
2021/09/29 01:59:47;;;;;;;8.07;6.93;;;;;;;;;;5057526;28;20463;-62
2021/09/29 02:02:13;;;;;;;7.30;6.43;;;;;;;;;;5056868;28;20240;-61
2021/09/29 02:04:46;;;;;;;12.10;8.10;;;;;;;;;;5057471;28;20935;-62
2021/09/29 02:07:11;;;;;;;7.43;6.20;;;;;;;;;;5056845;28;20542;-61
2021/09/29 02:09:37;;;;;;;6.60;6.00;;;;;;;;;;5057217;28;20452;-61
2021/09/29 02:12:02;;;;;;;7.20;6.20;;;;;;;;;;5056172;28;20307;-61
2021/09/29 02:14:28;;;;;;;7.53;5.50;;;;;;;;;;5057040;28;20689;-62
2021/09/29 02:16:54;;;;;;;7.27;6.07;;;;;;;;;;5057450;28;20209;-61
2021/09/29 02:19:21;;;;;;;6.63;5.97;;;;;;;;;;5056817;28;20231;-62
2021/09/29 02:21:46;;;;;;;8.00;5.70;;;;;;;;;;5056064;28;20460;-62
2021/09/29 02:24:12;;;;;;;6.97;5.70;;;;;;;;;;5056575;28;20512;-61
2021/09/29 02:26:38;;;;;;;6.80;5.53;;;;;;;;;;5057183;28;20665;-61
2021/09/29 02:29:04;;;;;;;6.63;6.03;;;;;;;;;;5056970;28;20228;-61
2021/09/29 02:31:29;;;;;;;7.30;6.10;;;;;;;;;;5056620;28;20221;-60
2021/09/29 02:33:55;;;;;;;6.97;5.60;;;;;;;;;;5057086;28;20448;-60
2021/09/29 02:36:20;;;;;;;6.60;5.90;;;;;;;;;;5056696;28;20229;-61
2021/09/29 02:38:46;;;;;;;9.30;7.00;;;;;;;;;;5056869;28;20237;-61
2021/09/29 02:41:12;;;;;;;9.83;6.80;;;;;;;;;;5056319;28;20694;-60
2021/09/29 02:43:37;;;;;;;8.07;6.87;;;;;;;;;;5056756;28;20282;-61
2021/09/29 02:46:03;;;;;;;6.60;6.00;;;;;;;;;;5056566;28;20542;-61
2021/09/29 02:48:28;;;;;;;8.70;5.87;;;;;;;;;;5056333;28;20223;-62
2021/09/29 02:50:54;;;;;;;8.50;6.20;;;;;;;;;;5056682;28;20217;-61
2021/09/29 02:53:19;;;;;;;8.53;7.63;;;;;;;;;;5056075;28;20221;-61
2021/09/29 02:55:44;;;;;;;9.60;7.03;;;;;;;;;;5056530;28;20221;-60
2021/09/29 02:58:10;;;;;;;12.53;8.10;;;;;;;;;;5054068;28;20221;-61
2021/09/29 03:00:35;;;;;;;13.67;9.53;;;;;;;;;;5056284;28;20667;-61
2021/09/29 03:03:01;;;;;;;9.33;8.30;;;;;;;;;;5056436;28;20221;-60
2021/09/29 03:05:26;;;;;;;19.43;17.13;;;;;;;;;;5056111;28;20225;-61
2021/09/29 03:07:51;;;;;;;10.20;9.20;;;;;;;;;;5056259;28;20213;-61
2021/09/29 03:10:16;;;;;;;17.80;14.10;;;;;;;;;;5055704;28;20610;-60
2021/09/29 03:12:42;;;;;;;15.50;13.30;;;;;;;;;;5055921;28;20237;-60
2021/09/29 03:15:07;;;;;;;18.03;13.07;;;;;;;;;;5056360;28;20304;-60
2021/09/29 03:17:33;;;;;;;16.63;11.63;;;;;;;;;;5055541;28;20213;-61
2021/09/29 03:19:58;;;;;;;17.10;12.97;;;;;;;;;;5055009;28;20307;-61
2021/09/29 03:22:23;;;;;;;18.90;15.93;;;;;;;;;;5055552;28;20294;-61
2021/09/29 03:24:48;;;;;;;19.03;14.53;;;;;;;;;;5055995;28;20285;-60
2021/09/29 03:27:14;;;;;;;18.17;11.90;;;;;;;;;;5055712;28;20275;-61
2021/09/29 03:29:39;;;;;;;24.37;14.40;;;;;;;;;;5055756;28;20267;-63
2021/09/29 03:32:05;;;;;;;26.30;18.60;;;;;;;;;;5055620;28;20308;-61
2021/09/29 03:34:30;;;;;;;28.47;20.17;;;;;;;;;;5055399;28;20224;-61
2021/09/29 03:36:55;;;;;;;23.53;16.23;;;;;;;;;;5055886;28;20562;-62
2021/09/29 03:39:20;;;;;;;24.27;15.60;;;;;;;;;;5055309;28;20244;-60
2021/09/29 03:41:46;;;;;;;21.90;16.40;;;;;;;;;;5055627;28;20665;-62
2021/09/29 03:44:11;;;;;;;23.57;17.93;;;;;;;;;;5055407;28;20532;-61
2021/09/29 03:46:37;;;;;;;27.13;18.20;;;;;;;;;;5053685;28;20228;-60
2021/09/29 03:49:03;;;;;;;25.47;18.20;;;;;;;;;;5053162;28;20651;-61
2021/09/29 03:51:29;;;;;;;22.73;16.93;;;;;;;;;;5054344;28;20221;-61
2021/09/29 03:53:54;;;;;;;23.30;16.23;;;;;;;;;;5055307;28;20861;-61
2021/09/29 03:56:19;;;;;;;23.20;14.40;;;;;;;;;;5054746;28;20684;-62
2021/09/29 03:58:45;;;;;;;20.13;14.90;;;;;;;;;;5055032;28;20221;-61
2021/09/29 04:01:10;;;;;;;23.83;17.37;;;;;;;;;;5054947;28;20229;-61
2021/09/29 04:03:35;;;;;;;24.20;17.03;;;;;;;;;;5054710;28;20217;-61
2021/09/29 04:06:01;;;;;;;25.70;15.50;;;;;;;;;;5053915;28;20217;-60
2021/09/29 04:08:26;;;;;;;28.67;17.93;;;;;;;;;;5053644;28;20217;-61
2021/09/29 04:10:51;;;;;;;24.63;15.47;;;;;;;;;;5054748;28;20324;-61
2021/09/29 04:13:16;;;;;;;26.63;15.90;;;;;;;;;;5053322;28;20527;-61
2021/09/29 04:15:42;;;;;;;26.33;14.80;;;;;;;;;;5054731;28;20217;-61
2021/09/29 04:18:07;;;;;;;24.97;16.50;;;;;;;;;;5053291;28;20311;-61
2021/09/29 04:20:33;;;;;;;24.10;16.40;;;;;;;;;;5054345;28;20217;-61
2021/09/29 04:22:58;;;;;;;24.00;16.80;;;;;;;;;;5053991;28;20548;-61
2021/09/29 04:25:24;;;;;;;26.10;17.00;;;;;;;;;;5053493;28;20456;-60
2021/09/29 04:27:49;;;;;;;26.70;17.80;;;;;;;;;;5054897;28;20300;-60
2021/09/29 04:30:14;;;;;;;25.53;17.33;;;;;;;;;;5054329;28;20300;-61
2021/09/29 04:32:41;;;;;;;29.90;17.47;;;;;;;;;;5054562;28;20794;-60
2021/09/29 04:35:07;;;;;;;25.00;16.67;;;;;;;;;;5054763;28;20307;-61
2021/09/29 04:37:33;;;;;;;27.10;18.23;;;;;;;;;;5054200;28;20464;-61
2021/09/29 04:39:58;;;;;;;28.97;21.00;;;;;;;;;;5054706;28;20471;-61
2021/09/29 04:42:23;;;;;;;28.83;19.97;;;;;;;;;;5054025;28;20240;-60
2021/09/29 04:44:48;;;;;;;27.17;18.93;;;;;;;;;;5054344;28;20300;-61
2021/09/29 04:47:14;;;;;;;30.67;19.00;;;;;;;;;;5054358;28;20247;-60
2021/09/29 04:49:39;;;;;;;27.33;19.33;;;;;;;;;;5053664;28;20232;-60
2021/09/29 04:52:05;;;;;;;29.30;19.73;;;;;;;;;;5054283;28;20286;-61
2021/09/29 04:54:30;;;;;;;29.67;19.10;;;;;;;;;;5054065;28;20221;-61
2021/09/29 04:56:55;;;;;;;28.93;20.77;;;;;;;;;;5062954;28;20271;-61
2021/09/29 04:59:20;;;;;;;36.63;20.20;;;;;;;;;;5066852;28;20224;-61
2021/09/29 05:01:46;;;;;;;35.10;21.37;;;;;;;;;;5074253;28;20731;-61
2021/09/29 05:04:11;;;;;;;27.43;19.90;;;;;;;;;;5056849;28;20225;-60
2021/09/29 05:06:39;;;;;;;34.10;21.00;;;;;;;;;;5053811;28;20238;-61
2021/09/29 05:09:04;;;;;;;29.30;20.33;;;;;;;;;;5054437;28;20213;-61
2021/09/29 05:11:44;;;;;;;29.90;20.07;;;;;;;;;;5060603;28;20478;-61
2021/09/29 05:14:10;;;;;;;29.50;19.10;;;;;;;;;;5074083;28;20212;-61
2021/09/29 05:16:35;;;;;;;25.30;19.20;;;;;;;;;;5073729;28;20530;-62
2021/09/29 05:19:02;;;;;;;27.20;16.93;;;;;;;;;;5074258;28;20224;-61
2021/09/29 05:21:27;;;;;;;27.70;17.67;;;;;;;;;;5065928;28;20592;-61
2021/09/29 05:23:53;;;;;;;26.43;18.60;;;;;;;;;;5053859;28;20486;-61
2021/09/29 05:26:18;;;;;;;33.40;19.27;;;;;;;;;;5053763;28;20303;-60
2021/09/29 05:28:47;;;;;;;32.57;20.70;;;;;;;;;;5062409;28;20590;-61
2021/09/29 05:31:12;;;;;;;34.43;19.80;;;;;;;;;;5073882;28;20621;-61
2021/09/29 05:33:38;;;;;;;27.93;18.70;;;;;;;;;;5073627;28;20469;-60
2021/09/29 05:36:03;;;;;;;26.47;17.47;;;;;;;;;;5072901;28;20228;-61
2021/09/29 05:38:28;;;;;;;34.83;18.77;;;;;;;;;;5073546;28;20227;-61
2021/09/29 05:40:54;;;;;;;29.40;18.57;;;;;;;;;;5073577;28;20223;-60
2021/09/29 05:43:19;;;;;;;27.97;20.97;;;;;;;;;;5073420;28;20224;-61
2021/09/29 05:45:45;;;;;;;28.60;19.20;;;;;;;;;;5073909;28;20224;-60
2021/09/29 05:48:10;;;;;;;27.20;18.97;;;;;;;;;;5065273;28;20591;-61
2021/09/29 05:50:35;;;;;;;32.97;19.87;;;;;;;;;;5053256;28;20236;-61
2021/09/29 05:53:02;;;;;;;31.00;20.13;;;;;;;;;;5053872;28;20648;-61
2021/09/29 05:55:27;;;;;;;33.20;20.13;;;;;;;;;;5052905;28;20221;-63
2021/09/29 05:57:52;;;;;;;33.17;20.77;;;;;;;;;;5053651;28;20463;-60
2021/09/29 06:00:18;;;;;;;33.17;21.10;;;;;;;;;;5053628;28;20723;-61
2021/09/29 06:02:43;;;;;;;31.07;21.67;;;;;;;;;;5052852;28;20658;-60
2021/09/29 06:05:09;;;;;;;30.00;19.93;;;;;;;;;;5053562;28;20301;-61
2021/09/29 06:07:34;;;;;;;27.97;19.90;;;;;;;;;;5053088;28;20248;-61
2021/09/29 06:09:59;;;;;;;31.97;20.60;;;;;;;;;;5053351;28;20232;-61
2021/09/29 06:12:24;;;;;;;29.50;19.73;;;;;;;;;;5052971;28;20320;-61
2021/09/29 06:14:52;;;;;;;24.10;18.13;;;;;;;;;;5053622;28;20327;-61
2021/09/29 06:17:25;;;;;;;32.67;19.90;;;;;;;;;;5053275;28;20224;-60
2021/09/29 06:19:51;;;;;;;30.53;20.97;;;;;;;;;;5053096;28;20463;-61
2021/09/29 06:22:17;;;;;;;28.47;20.83;;;;;;;;;;5053060;28;20467;-61
2021/09/29 06:24:42;;;;;;;29.60;19.10;;;;;;;;;;5052923;28;20470;-61
2021/09/29 06:27:08;;;;;;;27.30;19.47;;;;;;;;;;5053612;28;20620;-61
2021/09/29 06:29:33;;;;;;;25.93;19.13;;;;;;;;;;5065309;28;20307;-61
2021/09/29 06:32:02;;;;;;;29.43;22.33;;;;;;;;;;5073586;28;20208;-60
2021/09/29 06:34:27;;;;;;;30.50;22.27;;;;;;;;;;5076754;28;20234;-60
2021/09/29 06:36:52;;;;;;;32.80;21.30;;;;;;;;;;5076833;28;20458;-61
2021/09/29 06:39:17;;;;;;;29.87;23.20;;;;;;;;;;5077078;28;20358;-61
2021/09/29 06:41:44;;;;;;;32.03;24.07;;;;;;;;;;5076079;28;20224;-61
2021/09/29 06:44:10;;;;;;;33.80;22.00;;;;;;;;;;5076716;28;20672;-61
2021/09/29 06:46:35;;;;;;;34.67;25.10;;;;;;;;;;5076322;28;20461;-60
2021/09/29 06:49:01;;;;;;;28.20;21.60;;;;;;;;;;5061402;28;20308;-61
2021/09/29 06:51:26;;;;;;;33.57;23.53;;;;;;;;;;5056592;28;20232;-61
2021/09/29 06:53:52;;;;;;;31.37;23.60;;;;;;;;;;5056099;28;20451;-61
2021/09/29 06:56:17;;;;;;;36.73;22.93;;;;;;;;;;5055556;28;20608;-61
2021/09/29 06:58:44;;;;;;;32.97;23.63;;;;;;;;;;5055145;28;20221;-61
2021/09/29 07:01:09;;;;;;;36.13;24.00;;;;;;;;;;5056107;28;20611;-61
2021/09/29 07:03:34;;;;;;;30.73;22.33;;;;;;;;;;5055874;28;20460;-61
2021/09/29 07:06:00;;;;;;;33.40;22.60;;;;;;;;;;5056395;28;20288;-61
2021/09/29 07:08:26;;;;;;;32.10;24.00;;;;;;;;;;5056373;28;20277;-61
2021/09/29 07:10:51;;;;;;;33.70;24.80;;;;;;;;;;5055433;28;20514;-61
2021/09/29 07:13:16;;;;;;;31.97;22.80;;;;;;;;;;5056335;28;20649;-61
2021/09/29 07:15:42;;;;;;;34.17;25.27;;;;;;;;;;5055981;28;20245;-61
2021/09/29 07:18:09;;;;;;;33.27;22.97;;;;;;;;;;5056085;28;20253;-61
2021/09/29 07:20:34;;;;;;;30.63;22.80;;;;;;;;;;5055795;28;20261;-61
2021/09/29 07:23:00;;;;;;;30.50;22.63;;;;;;;;;;5055938;28;20492;-61
2021/09/29 07:25:28;;;;;;;32.10;25.90;;;;;;;;;;5055978;28;20534;-61
2021/09/29 07:27:54;;;;;;;28.97;21.83;;;;;;;;;;5055491;28;20267;-61
2021/09/29 07:30:19;;;;;;;33.97;24.97;;;;;;;;;;5055953;28;20986;-61
2021/09/29 07:32:46;;;;;;;27.63;20.27;;;;;;;;;;5055625;28;20240;-61
2021/09/29 07:35:12;;;;;;;29.00;22.97;;;;;;;;;;5055886;28;20290;-61
2021/09/29 07:37:37;;;;;;;31.60;22.77;;;;;;;;;;5055447;28;20551;-61
2021/09/29 07:40:03;;;;;;;24.80;20.73;;;;;;;;;;5055608;28;20858;-61
2021/09/29 07:42:28;;;;;;;28.60;22.27;;;;;;;;;;5055437;28;20287;-61
2021/09/29 07:44:54;;;;;;;26.60;21.80;;;;;;;;;;5055027;28;20221;-61
2021/09/29 07:47:19;;;;;;;28.17;22.67;;;;;;;;;;5055360;28;20319;-60
2021/09/29 07:49:44;;;;;;;28.10;22.90;;;;;;;;;;5055210;28;20229;-60
2021/09/29 07:52:10;;;;;;;29.83;21.50;;;;;;;;;;5055387;28;20225;-61
2021/09/29 07:54:35;;;;;;;28.80;21.67;;;;;;;;;;5054826;28;20303;-61
2021/09/29 07:57:00;;;;;;;24.63;19.80;;;;;;;;;;5055347;28;20209;-61
2021/09/29 07:59:26;;;;;;;27.17;21.23;;;;;;;;;;5055289;28;20228;-61
2021/09/29 08:01:51;;;;;;;26.67;20.57;;;;;;;;;;5054628;28;20241;-61
2021/09/29 08:04:20;;;;;;;28.13;23.37;;;;;;;;;;5055136;28;20243;-61
2021/09/29 08:06:45;;;;;;;23.30;20.40;;;;;;;;;;5054714;28;20224;-60
2021/09/29 08:09:10;;;;;;;27.60;22.47;;;;;;;;;;5055085;28;20475;-61
2021/09/29 08:11:35;;;;;;;26.63;21.60;;;;;;;;;;5053518;28;20233;-61
2021/09/29 08:14:01;;;;;;;24.60;20.90;;;;;;;;;;5055157;28;20241;-61
2021/09/29 08:16:26;;;;;;;24.83;21.50;;;;;;;;;;5054840;28;20232;-61
2021/09/29 08:18:51;;;;;;;30.47;22.47;;;;;;;;;;5054391;28;20267;-61
2021/09/29 08:21:22;;;;;;;28.00;21.87;;;;;;;;;;5054584;28;20224;-61
2021/09/29 08:23:50;;;;;;;27.30;22.03;;;;;;;;;;5054458;28;20223;-61
2021/09/29 08:26:38;;;;;;;28.97;22.90;;;;;;;;;;5054853;28;20541;-61
2021/09/29 08:29:18;;;;;;;26.93;20.63;;;;;;;;;;5054611;28;20523;-61
2021/09/29 08:34:51;;;;;;;31.87;24.83;;;;;;;;;;5054772;28;20547;-61
2021/09/29 08:40:02;;;;;;;29.07;23.20;;;;;;;;;;5053979;28;20459;-60
2021/09/29 08:42:38;;;;;;;36.27;26.57;;;;;;;;;;5054162;28;20236;-59
2021/09/29 08:45:12;;;;;;;40.17;28.03;;;;;;;;;;5054620;28;20795;-60
2021/09/29 08:48:03;;;;;;;39.57;26.40;;;;;;;;;;5054077;28;20463;-61
2021/09/29 08:51:14;;;;;;;55.20;29.27;;;;;;;;;;5053792;28;20471;-60
2021/09/29 08:53:55;;;;;;;46.13;29.87;;;;;;;;;;5053596;28;20452;-61
2021/09/29 08:56:40;;;;;;;51.10;28.70;;;;;;;;;;5051841;28;20460;-61
2021/09/29 09:14:47;;;;;;;50.17;29.57;;;;;;;;;;5053786;28;20456;-61
2021/09/29 09:16:07;;;;;;;76.37;32.50;;;;;;;;;;5053630;28;20509;-61
2021/09/29 09:18:33;;;;;;;84.23;36.07;;;;;;;;;;5053566;28;20459;-61
2021/09/29 09:21:05;;;;;;;80.47;35.63;;;;;;;;;;5053631;28;20466;-62
2021/09/29 09:23:37;;;;;;;101.37;35.67;;;;;;;;;;5053510;28;20217;-61
2021/09/29 09:26:20;;;;;;;103.90;38.17;;;;;;;;;;5053864;28;20539;-61
2021/09/29 09:28:46;;;;;;;102.70;36.47;;;;;;;;;;5053764;28;20954;-60
2021/09/29 09:31:17;;;;;;;322.20;60.23;;;;;;;;;;5053672;28;20513;-61
2021/09/29 09:33:50;;;;;;;78.70;37.13;;;;;;;;;;5053324;28;20522;-62
2021/09/29 09:36:32;;;;;;;216.60;59.73;;;;;;;;;;5053767;28;20479;-61
2021/09/29 09:39:08;;;;;;;251.97;63.00;;;;;;;;;;5053286;28;20451;-61
2021/09/29 09:42:26;;;;;;;46.63;30.17;;;;;;;;;;5052431;28;20781;-62
2021/09/29 09:44:52;;;;;;;238.17;59.87;;;;;;;;;;5053433;28;20530;-61
2021/09/29 09:47:21;;;;;;;249.83;51.47;;;;;;;;;;5052641;28;20451;-62
2021/09/29 09:49:48;;;;;;;242.03;56.13;;;;;;;;;;5053241;28;20463;-62
2021/09/29 09:52:26;;;;;;;234.70;52.70;;;;;;;;;;5053650;28;20861;-61
2021/09/29 09:54:51;;;;;;;229.43;47.57;;;;;;;;;;5053036;28;20931;-62
2021/09/29 09:57:21;;;;;;;269.43;59.80;;;;;;;;;;5053521;28;20505;-62
2021/09/29 09:59:48;;;;;;;145.47;44.30;;;;;;;;;;5053287;28;20225;-61
2021/09/29 10:02:13;;;;;;;194.40;55.30;;;;;;;;;;5053418;28;20460;-61
2021/09/29 10:04:38;;;;;;;215.70;49.33;;;;;;;;;;5053119;28;20466;-62
2021/09/29 10:07:06;;;;;;;241.83;54.97;;;;;;;;;;5055434;28;20284;-61
2021/09/29 10:09:45;;;;;;;206.03;52.37;;;;;;;;;;5057190;28;20209;-61
2021/09/29 10:12:19;;;;;;;188.27;48.80;;;;;;;;;;5056942;28;20467;-62
2021/09/29 10:14:57;;;;;;;185.40;48.77;;;;;;;;;;5056989;28;20459;-61
2021/09/29 10:23:13;;;;;;;215.60;50.60;;;;;;;;;;5056087;28;20497;-62
2021/09/29 10:26:10;;;;;;;198.73;52.50;;;;;;;;;;5055890;28;20529;-62
2021/09/29 10:28:43;;;;;;;253.23;54.27;;;;;;;;;;5056598;28;20795;-63
2021/09/29 10:31:17;;;;;;;182.43;49.87;;;;;;;;;;5056921;28;20448;-61
2021/09/29 10:34:12;;;;;;;161.97;46.17;;;;;;;;;;5056370;28;20459;-62
2021/09/29 10:36:59;;;;;;;168.70;46.13;;;;;;;;;;5056476;28;20452;-61
2021/09/29 10:42:26;;;;;;;110.37;36.50;;;;;;;;;;5056098;28;20471;-61
2021/09/29 10:45:27;;;;;;;139.60;43.37;;;;;;;;;;5056606;28;20459;-61
2021/09/29 11:27:23;;;;;;;108.70;36.30;;;;;;;;;;5055305;28;20545;-61
2021/09/29 11:29:00;;;;;;;93.40;34.20;;;;;;;;;;5053767;28;20454;-61
2021/09/29 11:31:35;;;;;;;68.47;31.47;;;;;;;;;;5053405;28;21075;-60
2021/09/29 11:34:10;;;;;;;74.13;24.97;;;;;;;;;;5052971;28;20759;-59
2021/09/29 11:36:59;;;;;;;80.27;28.57;;;;;;;;;;5047403;28;20483;-61
2021/09/29 12:07:57;;;;;;;69.03;26.80;;;;;;;;;;5054478;28;20478;-62
2021/09/29 12:12:22;;;;;;;47.90;20.63;;;;;;;;;;5034929;28;20925;-62
2021/09/29 12:14:49;;;;;;;51.33;21.50;;;;;;;;;;5034813;28;20544;-61
2021/09/29 12:17:26;;;;;;;36.00;19.90;;;;;;;;;;5035038;28;20449;-64
2021/09/29 12:19:57;;;;;;;67.80;24.57;;;;;;;;;;5050515;28;20480;-61
2021/09/29 12:22:24;;;;;;;40.93;20.83;;;;;;;;;;5034944;28;20471;-62
2021/09/29 12:24:56;;;;;;;45.50;21.10;;;;;;;;;;5034421;28;20773;-61
2021/09/29 12:27:42;;;;;;;19.93;17.10;;;;;;;;;;5034786;28;20467;-61
2021/09/29 12:30:39;;;;;;;60.57;26.33;;;;;;;;;;5034006;28;20535;-61
2021/09/29 12:35:44;;;;;;;73.70;27.37;;;;;;;;;;5048886;28;20939;-61
2021/09/29 12:38:10;;;;;;;66.43;25.67;;;;;;;;;;5054163;28;20590;-62
2021/09/29 12:40:37;;;;;;;58.20;23.23;;;;;;;;;;5054372;28;20551;-61
2021/09/29 12:43:09;;;;;;;88.57;29.37;;;;;;;;;;5053713;28;20236;-61
2021/09/29 12:45:37;;;;;;;66.77;27.83;;;;;;;;;;5054498;28;20459;-63
2021/09/29 12:48:04;;;;;;;65.87;28.70;;;;;;;;;;5054005;28;21005;-62
2021/09/29 12:50:41;;;;;;;28.93;20.50;;;;;;;;;;5053308;28;20578;-61
2021/09/29 12:53:23;;;;;;;61.77;26.43;;;;;;;;;;5052913;28;20965;-63
2021/09/29 12:58:53;;;;;;;28.53;21.30;;;;;;;;;;5031792;28;20456;-62
2021/09/29 13:01:18;;;;;;;28.87;21.70;;;;;;;;;;5032042;28;20472;-62
2021/09/29 13:03:43;;;;;;;40.40;22.90;;;;;;;;;;5021781;28;20218;-62
2021/09/29 13:06:13;;;;;;;33.53;21.50;;;;;;;;;;5034100;28;20295;-62
2021/09/29 13:08:38;;;;;;;29.50;20.83;;;;;;;;;;5049682;28;20683;-63
2021/09/29 13:11:03;;;;;;;21.90;18.87;;;;;;;;;;5053890;28;20467;-61
2021/09/29 13:13:35;;;;;;;47.70;22.87;;;;;;;;;;5053587;28;20217;-61
2021/09/29 13:16:02;;;;;;;45.70;21.47;;;;;;;;;;5054119;28;20223;-62
2021/09/29 13:18:38;;;;;;;27.97;18.33;;;;;;;;;;5054100;28;20464;-61
2021/09/29 13:21:28;;;;;;;25.27;18.40;;;;;;;;;;5053550;28;20827;-61
2021/09/29 13:23:59;;;;;;;23.17;17.87;;;;;;;;;;5053084;28;20501;-61
2021/09/29 13:37:08;;;;;;;35.83;18.40;;;;;;;;;;5051306;28;20471;-63
2021/09/29 13:39:33;;;;;;;17.77;16.07;;;;;;;;;;5051637;28;20798;-62
2021/09/29 13:41:59;;;;;;;24.60;17.50;;;;;;;;;;5053066;28;20225;-62
2021/09/29 13:44:25;;;;;;;28.40;17.50;;;;;;;;;;5058081;28;20221;-62
2021/09/29 13:46:51;;;;;;;32.40;17.83;;;;;;;;;;5057490;28;20217;-61
2021/09/29 13:49:16;;;;;;;18.00;16.30;;;;;;;;;;5057427;28;20547;-63
2021/09/29 13:51:46;;;;;;;18.13;15.57;;;;;;;;;;5057040;28;20217;-62
2021/09/29 13:54:16;;;;;;;16.57;13.70;;;;;;;;;;5057841;28;20387;-62
2021/09/29 13:56:47;;;;;;;17.00;14.83;;;;;;;;;;5057771;28;20791;-62
2021/09/29 13:59:23;;;;;;;16.23;14.57;;;;;;;;;;5057492;28;20463;-62
2021/09/29 14:29:09;;;;;;;14.57;13.07;;;;;;;;;;5057076;28;20458;-62
2021/09/29 14:34:00;;;;;;;16.20;14.60;;;;;;;;;;5056411;28;20482;-62
2021/09/29 14:36:25;;;;;;;16.73;15.13;;;;;;;;;;5056831;28;20645;-62
2021/09/29 14:38:51;;;;;;;15.40;13.80;;;;;;;;;;5056363;28;20236;-62
2021/09/29 14:41:16;;;;;;;15.50;13.97;;;;;;;;;;5056680;28;20225;-62
2021/09/29 14:43:42;;;;;;;17.07;15.37;;;;;;;;;;5056506;28;20217;-62
2021/09/29 14:46:08;;;;;;;17.77;15.97;;;;;;;;;;5056687;28;20653;-62
2021/09/29 14:48:33;;;;;;;16.33;14.70;;;;;;;;;;5055674;28;20217;-61
2021/09/29 14:50:59;;;;;;;16.20;14.70;;;;;;;;;;5056348;28;20237;-61
2021/09/29 14:53:24;;;;;;;17.37;15.40;;;;;;;;;;5055312;28;20261;-62
2021/09/29 14:55:49;;;;;;;16.10;14.53;;;;;;;;;;5056047;28;20221;-61
2021/09/29 14:58:15;;;;;;;15.57;13.97;;;;;;;;;;5056548;28;20236;-62
2021/09/29 15:00:40;;;;;;;15.00;13.53;;;;;;;;;;5055932;28;20233;-61
2021/09/29 15:03:05;;;;;;;17.10;15.07;;;;;;;;;;5056203;28;20232;-62
2021/09/29 15:05:31;;;;;;;16.13;14.13;;;;;;;;;;5056515;28;20227;-62
2021/09/29 15:07:56;;;;;;;16.47;14.97;;;;;;;;;;5056015;28;20221;-62
2021/09/29 15:10:22;;;;;;;16.87;15.37;;;;;;;;;;5056219;28;20731;-62
2021/09/29 15:12:47;;;;;;;16.50;14.80;;;;;;;;;;5055805;28;20263;-61
2021/09/29 15:17:46;;;;;;;16.20;14.53;;;;;;;;;;5056185;28;20664;-62
2021/09/29 15:23:17;;;;;;;16.00;14.40;;;;;;;;;;5050667;28;20547;-62
2021/09/29 15:28:43;;;;;;;16.17;14.50;;;;;;;;;;5055570;28;20579;-61
2021/09/29 15:31:21;;;;;;;17.50;15.67;;;;;;;;;;5055876;28;20920;-62
2021/09/29 15:47:42;;;;;;;15.90;14.40;;;;;;;;;;5055582;28;20467;-62
2021/09/29 15:50:22;;;;;;;21.10;14.50;;;;;;;;;;5055528;28;20916;-63
2021/09/29 15:52:58;;;;;;;16.07;14.43;;;;;;;;;;5055175;28;20598;-62
2021/09/29 16:00:41;;;;;;;18.77;16.73;;;;;;;;;;5055443;28;20464;-62
2021/09/29 16:08:22;;;;;;;17.27;15.57;;;;;;;;;;5054990;28;20235;-62
2021/09/29 16:13:35;;;;;;;16.77;15.17;;;;;;;;;;5055014;28;20846;-63
2021/09/29 16:16:09;;;;;;;17.00;14.90;;;;;;;;;;5054841;28;20955;-62
2021/09/29 16:18:52;;;;;;;15.70;14.30;;;;;;;;;;5055255;28;20954;-61
2021/09/29 16:21:44;;;;;;;17.63;15.73;;;;;;;;;;5054676;28;20502;-62
2021/09/29 16:30:00;;;;;;;15.20;13.83;;;;;;;;;;5054575;28;20474;-62
2021/09/29 16:30:10;;;;;;;15.83;14.43;;;;;;;;;;5054759;28;20470;-62
2021/09/29 16:35:12;;;;;;;17.27;15.57;;;;;;;;;;5054752;28;20521;-62
2021/09/29 16:37:37;;;;;;;18.37;16.57;;;;;;;;;;5054364;28;20452;-62
2021/09/29 16:40:03;;;;;;;16.33;14.83;;;;;;;;;;5054493;28;20941;-62
2021/09/29 16:42:28;;;;;;;17.40;15.80;;;;;;;;;;5054505;28;20735;-61
2021/09/29 16:44:56;;;;;;;17.17;15.37;;;;;;;;;;5054138;28;20641;-62
2021/09/29 16:47:22;;;;;;;16.47;14.87;;;;;;;;;;5054614;28;20220;-61
2021/09/29 16:49:48;;;;;;;17.50;15.83;;;;;;;;;;5053899;28;20464;-62
2021/09/29 16:52:25;;;;;;;18.73;16.93;;;;;;;;;;5054326;28;20581;-62
2021/09/29 16:54:52;;;;;;;19.20;16.60;;;;;;;;;;5053790;28;20551;-61
2021/09/29 16:57:23;;;;;;;17.70;16.00;;;;;;;;;;5054318;28;20464;-61
2021/09/29 16:59:55;;;;;;;17.50;15.83;;;;;;;;;;5054161;28;20463;-62
2021/09/29 17:02:20;;;;;;;17.00;15.50;;;;;;;;;;5054431;28;20998;-62
2021/09/29 17:04:46;;;;;;;17.27;15.53;;;;;;;;;;5053867;28;20456;-62
2021/09/29 17:07:12;;;;;;;17.93;16.13;;;;;;;;;;5054088;28;20224;-61
2021/09/29 17:09:40;;;;;;;17.73;15.87;;;;;;;;;;5053712;28;20451;-62
2021/09/29 17:12:06;;;;;;;17.90;16.07;;;;;;;;;;5053781;28;20225;-62
2021/09/29 17:14:31;;;;;;;17.10;15.57;;;;;;;;;;5054341;28;20941;-62
2021/09/29 17:16:57;;;;;;;17.23;15.37;;;;;;;;;;5053039;28;20228;-62
2021/09/29 17:19:22;;;;;;;17.23;15.43;;;;;;;;;;5054022;28;20217;-62
2021/09/29 17:21:47;;;;;;;17.90;16.17;;;;;;;;;;5053371;28;20571;-61
2021/09/29 17:24:13;;;;;;;18.10;15.83;;;;;;;;;;5054077;28;20252;-63
2021/09/29 17:26:38;;;;;;;17.23;15.43;;;;;;;;;;5053743;28;20516;-62
2021/09/29 17:29:03;;;;;;;16.93;15.33;;;;;;;;;;5053936;28;20691;-62
2021/09/29 17:31:34;;;;;;;18.07;16.27;;;;;;;;;;5053853;28;20286;-62
2021/09/29 17:34:11;;;;;;;16.93;14.03;;;;;;;;;;5053467;28;20213;-62